createdAt,value
2023-02-22T00:02:38.967Z,9.82
2023-02-22T00:07:41.288Z,10.30
2023-02-22T00:12:43.389Z,9.32
2023-02-22T00:17:46.063Z,12.85
2023-02-22T00:22:49.666Z,8.73
2023-02-22T00:27:52.892Z,11.32
2023-02-22T00:32:56.900Z,8.77
2023-02-22T00:38:00.773Z,10.32
2023-02-22T00:43:05.349Z,10.45
2023-02-22T00:48:08.718Z,10.35
2023-02-22T00:53:11.259Z,10.02
2023-02-22T00:58:13.086Z,11.73
2023-02-22T01:03:19.224Z,13.90
2023-02-22T01:08:21.289Z,11.60
2023-02-22T01:13:23.175Z,16.83
2023-02-22T01:18:25.998Z,8.68
2023-02-22T01:23:28.402Z,9.68
2023-02-22T01:28:33.493Z,14.68
2023-02-22T01:33:37.102Z,12.93
2023-02-22T01:38:40.020Z,10.10
2023-02-22T01:43:41.852Z,11.07
2023-02-22T01:48:49.489Z,9.52
2023-02-22T01:54:09.526Z,9.55
2023-02-22T01:59:12.642Z,10.43
2023-02-22T02:04:25.619Z,11.82
2023-02-22T02:09:35.820Z,7.82
2023-02-22T02:14:40.630Z,12.27
2023-02-22T02:20:13.252Z,12.05
2023-02-22T02:25:54.591Z,17.45
2023-02-22T02:31:20.613Z,12.67
2023-02-22T02:36:31.843Z,11.73
2023-02-22T02:41:39.892Z,12.85
2023-02-22T02:46:56.200Z,12.52
2023-02-22T02:51:59.440Z,13.77
2023-02-22T02:57:03.091Z,16.42
2023-02-22T03:02:28.613Z,9.68
2023-02-22T03:08:10.901Z,14.18
2023-02-22T03:13:30.632Z,16.48
2023-02-22T03:18:49.097Z,14.83
2023-02-22T03:24:06.186Z,19.33
2023-02-22T03:29:11.707Z,11.18
2023-02-22T03:34:19.723Z,12.65
2023-02-22T03:39:31.118Z,11.63
2023-02-22T03:44:38.034Z,12.20
2023-02-22T03:49:55.844Z,17.85
2023-02-22T03:54:57.737Z,14.10
2023-02-22T03:59:59.715Z,13.32
2023-02-22T04:05:01.836Z,14.27
2023-02-22T04:10:04.726Z,16.70
2023-02-22T04:15:09.427Z,15.82
2023-02-22T04:20:13.719Z,15.73
2023-02-22T04:25:29.993Z,16.30
2023-02-22T04:30:32.422Z,16.58
2023-02-22T04:35:35.761Z,17.65
2023-02-22T04:40:39.004Z,17.13
2023-02-22T04:45:41.863Z,16.30
2023-02-22T04:50:44.296Z,19.60
2023-02-22T04:55:46.399Z,14.27
2023-02-22T05:00:48.204Z,21.80
2023-02-22T05:05:52.410Z,14.10
2023-02-22T05:10:54.807Z,17.88
2023-02-22T05:15:56.686Z,17.73
2023-02-22T05:20:58.437Z,18.45
2023-02-22T05:26:00.676Z,16.27
2023-02-22T05:31:02.483Z,18.77
2023-02-22T05:36:04.452Z,21.17
2023-02-22T05:41:06.145Z,22.10
2023-02-22T05:46:08.325Z,16.55
2023-02-22T05:51:10.759Z,17.25
2023-02-22T05:56:12.534Z,14.68
2023-02-22T06:01:14.265Z,15.43
2023-02-22T06:06:17.778Z,16.90
2023-02-22T06:11:19.982Z,18.17
2023-02-22T06:16:22.729Z,18.80
2023-02-22T06:21:24.493Z,19.98
2023-02-22T06:26:26.285Z,16.58
2023-02-22T06:31:28.088Z,16.80
2023-02-22T06:36:30.546Z,14.65
2023-02-22T06:41:32.324Z,20.50
2023-02-22T06:46:34.209Z,17.85
2023-02-22T06:51:37.625Z,29.60
2023-02-22T06:56:39.521Z,28.58
2023-02-22T07:06:59.234Z,22.33
2023-02-22T07:12:01.020Z,27.50
2023-02-22T07:17:03.382Z,19.45
2023-02-22T07:22:06.218Z,20.92
2023-02-22T07:27:07.976Z,19.83
2023-02-22T07:32:10.363Z,26.77
2023-02-22T07:37:12.154Z,19.25
2023-02-22T07:42:13.962Z,21.08
2023-02-22T07:47:16.048Z,18.80
2023-02-22T07:52:18.043Z,20.75
2023-02-22T07:57:19.783Z,22.13
2023-02-22T08:02:21.770Z,18.60
2023-02-22T08:07:23.539Z,19.08
2023-02-22T08:12:25.339Z,17.23
2023-02-22T08:17:27.099Z,18.38
2023-02-22T08:22:29.203Z,19.88
2023-02-22T08:27:31.312Z,16.98
2023-02-22T08:32:33.511Z,18.48
2023-02-22T08:37:35.408Z,22.08
2023-02-22T08:42:37.206Z,21.30
2023-02-22T08:47:39.183Z,20.98
2023-02-22T08:52:40.922Z,15.52
2023-02-22T08:57:42.670Z,19.85
2023-02-22T09:02:44.694Z,16.95
2023-02-22T09:07:46.496Z,18.40
2023-02-22T09:12:48.276Z,13.90
2023-02-22T09:17:50.238Z,16.75
2023-02-22T09:22:53.174Z,15.68
2023-02-22T09:27:56.166Z,13.52
2023-02-22T09:33:04.266Z,11.30
2023-02-22T09:38:06.564Z,17.65
2023-02-22T09:43:41.703Z,18.70
2023-02-22T09:49:05.502Z,13.93
2023-02-22T09:54:17.669Z,16.13
2023-02-22T09:59:30.115Z,16.73
2023-02-22T10:04:34.934Z,15.63
2023-02-22T10:09:42.887Z,15.18
2023-02-22T10:15:04.837Z,13.27
2023-02-22T10:20:06.846Z,16.90
2023-02-22T10:25:21.786Z,16.13
2023-02-22T10:30:54.801Z,17.20
2023-02-22T10:35:56.797Z,16.85
2023-02-22T10:41:10.851Z,16.30
2023-02-22T10:46:17.807Z,10.85
2023-02-22T10:51:20.753Z,9.32
2023-02-22T10:56:25.476Z,12.38
2023-02-22T11:01:35.407Z,12.77
2023-02-22T11:06:38.074Z,15.27
2023-02-22T11:11:42.755Z,11.27
2023-02-22T11:16:52.726Z,9.73
2023-02-22T11:22:22.569Z,12.73
2023-02-22T11:27:40.511Z,14.80
2023-02-22T11:32:53.741Z,11.90
2023-02-22T11:38:17.089Z,10.10
2023-02-22T11:43:20.645Z,10.50
2023-02-22T11:48:23.329Z,10.88
2023-02-22T11:53:34.364Z,11.68
2023-02-22T11:59:36.810Z,8.30
2023-02-22T12:05:03.109Z,12.40
2023-02-22T12:10:25.191Z,11.30
2023-02-22T12:15:29.961Z,10.02
2023-02-22T12:20:45.615Z,11.32
2023-02-22T12:25:58.831Z,11.52
2023-02-22T12:36:56.694Z,10.77
2023-02-22T12:42:02.068Z,7.97
2023-02-22T12:47:07.864Z,7.43
2023-02-22T12:52:46.796Z,12.38
2023-02-22T12:57:51.284Z,9.95
2023-02-22T13:03:04.763Z,8.43
2023-02-22T13:08:06.460Z,9.90
2023-02-22T13:13:11.277Z,9.57
2023-02-22T13:24:03.654Z,10.90
2023-02-22T13:29:13.872Z,9.50
2023-02-22T13:34:40.880Z,10.25
2023-02-22T13:39:57.770Z,10.25
2023-02-22T13:45:16.554Z,11.00
2023-02-22T13:50:33.353Z,7.78
2023-02-22T13:55:38.210Z,8.93
2023-02-22T14:00:52.674Z,9.13
2023-02-22T14:05:57.268Z,19.27
2023-02-22T14:11:20.108Z,9.02
2023-02-22T14:16:25.206Z,7.22
2023-02-22T14:21:27.023Z,9.15
2023-02-22T14:26:34.813Z,8.07
2023-02-22T14:31:46.644Z,8.15
2023-02-22T14:37:07.771Z,12.23
2023-02-22T14:42:24.260Z,10.57
2023-02-22T14:47:39.986Z,6.57
2023-02-22T14:52:46.698Z,7.85
2023-02-22T15:03:22.393Z,10.77
2023-02-22T15:08:28.390Z,7.87
2023-02-22T15:13:33.188Z,10.63
2023-02-22T15:18:43.480Z,11.00
2023-02-22T15:23:49.064Z,6.38
2023-02-22T15:28:55.800Z,7.97
2023-02-22T15:33:57.933Z,6.68
2023-02-22T15:44:28.992Z,5.63
2023-02-22T15:49:38.031Z,5.30
2023-02-22T15:54:44.222Z,11.48
2023-02-22T15:59:53.045Z,10.57
2023-02-22T16:05:01.837Z,15.93
2023-02-22T16:10:09.304Z,35.95
2023-02-22T16:15:17.216Z,109.68
2023-02-22T16:20:22.152Z,49.92
2023-02-22T16:25:31.197Z,33.90
2023-02-22T16:30:36.609Z,37.97
2023-02-22T16:35:38.563Z,34.45
2023-02-22T16:40:46.255Z,31.73
2023-02-22T16:45:48.513Z,26.23
2023-02-22T16:50:52.176Z,35.92
2023-02-22T16:56:00.815Z,24.85
2023-02-22T17:01:03.284Z,26.40
2023-02-22T17:06:05.391Z,26.83
2023-02-22T17:11:08.432Z,29.50
2023-02-22T17:16:16.997Z,23.67
2023-02-22T17:21:19.097Z,25.95
2023-02-22T17:26:20.911Z,23.92
2023-02-22T17:31:26.935Z,20.92
2023-02-22T17:36:30.066Z,25.48
2023-02-22T17:41:57.876Z,44.75
2023-02-22T17:47:24.770Z,27.60
2023-02-22T17:52:30.229Z,25.92
2023-02-22T17:57:32.530Z,29.13
2023-02-22T18:02:34.656Z,25.30
2023-02-22T18:07:36.898Z,29.48
2023-02-22T18:12:39.895Z,23.13
2023-02-22T18:17:41.647Z,26.75
2023-02-22T18:22:44.385Z,25.23
2023-02-22T18:27:46.142Z,21.80
2023-02-22T18:32:47.971Z,28.10
2023-02-22T18:38:25.595Z,28.10
2023-02-22T18:43:28.216Z,23.55
2023-02-22T18:48:29.957Z,21.75
2023-02-22T18:53:32.337Z,43.83
2023-02-22T18:58:35.095Z,24.63
2023-02-22T19:03:38.348Z,21.85
2023-02-22T19:08:42.646Z,26.17
2023-02-22T19:13:48.355Z,24.80
2023-02-22T19:18:52.510Z,29.27
2023-02-22T19:23:54.439Z,29.48
2023-02-22T19:28:58.600Z,27.35
2023-02-22T19:34:09.161Z,27.95
2023-02-22T19:39:11.744Z,28.30
2023-02-22T19:44:13.844Z,30.40
2023-02-22T19:49:16.298Z,34.25
2023-02-22T19:54:21.324Z,34.50
2023-02-22T19:59:23.666Z,28.80
2023-02-22T20:04:25.757Z,27.67
2023-02-22T20:09:43.243Z,29.85
2023-02-22T20:14:46.381Z,27.25
2023-02-22T20:19:48.948Z,28.88
2023-02-22T20:24:52.258Z,34.00
2023-02-22T20:30:25.646Z,32.28
2023-02-22T20:35:27.970Z,36.53
2023-02-22T20:40:29.719Z,32.50
2023-02-22T20:45:32.308Z,39.10
2023-02-22T20:50:35.621Z,32.60
2023-02-22T20:55:37.407Z,32.85
2023-02-22T21:00:39.170Z,30.25
2023-02-22T21:05:45.423Z,30.30
2023-02-22T21:10:48.306Z,28.27
2023-02-22T21:15:52.707Z,36.35
2023-02-22T21:20:54.517Z,32.17
2023-02-22T21:26:03.560Z,30.25
2023-02-22T21:31:08.055Z,35.50
2023-02-22T21:36:13.579Z,36.53
2023-02-22T21:41:17.159Z,34.78
2023-02-22T21:46:19.724Z,34.80
2023-02-22T21:51:25.479Z,27.83
2023-02-22T21:56:28.945Z,30.10
2023-02-22T22:01:36.643Z,33.47
2023-02-22T22:06:38.395Z,33.30
2023-02-22T22:11:40.134Z,27.95
2023-02-22T22:16:41.900Z,30.15
2023-02-22T22:21:44.022Z,33.55
2023-02-22T22:26:45.808Z,33.05
2023-02-22T22:31:47.766Z,37.42
2023-02-22T22:36:49.774Z,34.33
2023-02-22T22:41:52.198Z,37.83
2023-02-22T22:46:54.934Z,35.90
2023-02-22T22:51:56.710Z,35.95
2023-02-22T22:56:58.691Z,40.50
2023-02-22T23:02:03.125Z,33.65
2023-02-22T23:07:06.666Z,34.58
2023-02-22T23:12:16.941Z,32.45
2023-02-22T23:17:31.282Z,28.00
2023-02-22T23:22:33.347Z,27.83
2023-02-22T23:27:35.216Z,36.20
2023-02-22T23:32:37.028Z,36.47
2023-02-22T23:37:39.979Z,31.27
2023-02-22T23:42:42.148Z,35.00
2023-02-22T23:47:43.966Z,32.15
2023-02-22T23:52:46.347Z,35.55
2023-02-22T23:57:48.173Z,33.67
